sensor_id;sensor_type;location;lat;lon;timestamp;P1;durP1;ratioP1;P2;durP2;ratioP2
18754;SDS011;35061;47.664;9.166;2023-05-02T00:02:24;3.00;;;2.70;;
18754;SDS011;35061;47.664;9.166;2023-05-02T00:04:53;2.72;;;2.53;;
18754;SDS011;35061;47.664;9.166;2023-05-02T00:07:21;3.08;;;2.28;;
18754;SDS011;35061;47.664;9.166;2023-05-02T00:09:49;2.45;;;2.25;;
18754;SDS011;35061;47.664;9.166;2023-05-02T00:12:17;2.33;;;2.12;;
18754;SDS011;35061;47.664;9.166;2023-05-02T00:14:45;2.28;;;2.08;;
18754;SDS011;35061;47.664;9.166;2023-05-02T00:17:16;2.53;;;2.33;;
18754;SDS011;35061;47.664;9.166;2023-05-02T00:19:47;2.50;;;2.30;;
18754;SDS011;35061;47.664;9.166;2023-05-02T00:22:15;2.40;;;2.17;;
18754;SDS011;35061;47.664;9.166;2023-05-02T00:24:43;3.62;;;2.25;;
18754;SDS011;35061;47.664;9.166;2023-05-02T00:27:11;2.17;;;2.03;;
18754;SDS011;35061;47.664;9.166;2023-05-02T00:29:40;3.20;;;2.60;;
18754;SDS011;35061;47.664;9.166;2023-05-02T00:32:08;2.70;;;2.50;;
18754;SDS011;35061;47.664;9.166;2023-05-02T00:34:36;3.03;;;2.60;;
18754;SDS011;35061;47.664;9.166;2023-05-02T00:37:04;3.72;;;2.92;;
18754;SDS011;35061;47.664;9.166;2023-05-02T00:39:33;2.75;;;2.55;;
18754;SDS011;35061;47.664;9.166;2023-05-02T00:42:02;2.87;;;2.50;;
18754;SDS011;35061;47.664;9.166;2023-05-02T00:44:30;2.70;;;2.50;;
18754;SDS011;35061;47.664;9.166;2023-05-02T00:46:58;2.80;;;2.60;;
18754;SDS011;35061;47.664;9.166;2023-05-02T00:49:28;3.85;;;2.62;;
18754;SDS011;35061;47.664;9.166;2023-05-02T00:51:57;2.90;;;2.60;;
18754;SDS011;35061;47.664;9.166;2023-05-02T00:54:25;3.17;;;2.87;;
18754;SDS011;35061;47.664;9.166;2023-05-02T00:56:53;2.70;;;2.50;;
18754;SDS011;35061;47.664;9.166;2023-05-02T00:59:21;2.90;;;2.65;;
18754;SDS011;35061;47.664;9.166;2023-05-02T01:04:49;2.90;;;2.70;;
18754;SDS011;35061;47.664;9.166;2023-05-02T01:07:43;2.85;;;2.65;;
18754;SDS011;35061;47.664;9.166;2023-05-02T01:13:12;3.55;;;3.25;;
18754;SDS011;35061;47.664;9.166;2023-05-02T01:15:47;3.22;;;2.92;;
18754;SDS011;35061;47.664;9.166;2023-05-02T01:18:20;3.28;;;2.97;;
18754;SDS011;35061;47.664;9.166;2023-05-02T01:20:52;3.10;;;2.80;;
18754;SDS011;35061;47.664;9.166;2023-05-02T01:27:13;3.25;;;2.95;;
18754;SDS011;35061;47.664;9.166;2023-05-02T01:29:29;3.37;;;3.08;;
18754;SDS011;35061;47.664;9.166;2023-05-02T01:31:58;3.17;;;2.97;;
18754;SDS011;35061;47.664;9.166;2023-05-02T01:34:29;4.00;;;3.42;;
18754;SDS011;35061;47.664;9.166;2023-05-02T01:36:59;2.83;;;2.62;;
18754;SDS011;35061;47.664;9.166;2023-05-02T01:39:28;3.50;;;3.20;;
18754;SDS011;35061;47.664;9.166;2023-05-02T01:41:57;4.30;;;3.97;;
18754;SDS011;35061;47.664;9.166;2023-05-02T01:44:29;3.40;;;3.10;;
18754;SDS011;35061;47.664;9.166;2023-05-02T01:46:59;3.12;;;2.90;;
18754;SDS011;35061;47.664;9.166;2023-05-02T01:49:29;3.58;;;3.28;;
18754;SDS011;35061;47.664;9.166;2023-05-02T01:52:01;2.90;;;2.70;;
18754;SDS011;35061;47.664;9.166;2023-05-02T01:54:32;3.28;;;2.97;;
18754;SDS011;35061;47.664;9.166;2023-05-02T01:57:01;3.40;;;3.08;;
18754;SDS011;35061;47.664;9.166;2023-05-02T01:59:33;3.22;;;3.03;;
18754;SDS011;35061;47.664;9.166;2023-05-02T02:02:03;3.08;;;2.87;;
18754;SDS011;35061;47.664;9.166;2023-05-02T02:04:33;4.93;;;2.85;;
18754;SDS011;35061;47.664;9.166;2023-05-02T02:07:05;3.47;;;3.17;;
18754;SDS011;35061;47.664;9.166;2023-05-02T02:09:35;3.55;;;3.08;;
18754;SDS011;35061;47.664;9.166;2023-05-02T02:14:56;4.22;;;3.83;;
18754;SDS011;35061;47.664;9.166;2023-05-02T02:17:31;4.37;;;3.97;;
18754;SDS011;35061;47.664;9.166;2023-05-02T02:20:05;3.70;;;3.40;;
18754;SDS011;35061;47.664;9.166;2023-05-02T02:22:36;3.60;;;3.30;;
18754;SDS011;35061;47.664;9.166;2023-05-02T02:25:07;4.07;;;3.70;;
18754;SDS011;35061;47.664;9.166;2023-05-02T02:27:38;4.47;;;3.28;;
18754;SDS011;35061;47.664;9.166;2023-05-02T02:30:07;3.30;;;3.03;;
18754;SDS011;35061;47.664;9.166;2023-05-02T02:32:36;4.37;;;3.97;;
18754;SDS011;35061;47.664;9.166;2023-05-02T02:35:04;3.62;;;3.33;;
18754;SDS011;35061;47.664;9.166;2023-05-02T02:37:34;4.07;;;3.78;;
18754;SDS011;35061;47.664;9.166;2023-05-02T02:40:22;5.05;;;4.55;;
18754;SDS011;35061;47.664;9.166;2023-05-02T02:50:53;5.93;;;4.70;;
18754;SDS011;35061;47.664;9.166;2023-05-02T02:56:14;4.82;;;4.12;;
18754;SDS011;35061;47.664;9.166;2023-05-02T03:01:55;4.40;;;4.00;;
18754;SDS011;35061;47.664;9.166;2023-05-02T03:04:30;4.97;;;4.45;;
18754;SDS011;35061;47.664;9.166;2023-05-02T03:07:00;4.68;;;4.20;;
18754;SDS011;35061;47.664;9.166;2023-05-02T03:09:41;5.72;;;4.28;;
18754;SDS011;35061;47.664;9.166;2023-05-02T03:12:10;5.60;;;4.50;;
18754;SDS011;35061;47.664;9.166;2023-05-02T03:14:38;6.03;;;4.50;;
18754;SDS011;35061;47.664;9.166;2023-05-02T03:17:07;4.25;;;3.85;;
18754;SDS011;35061;47.664;9.166;2023-05-02T03:19:35;4.40;;;4.00;;
18754;SDS011;35061;47.664;9.166;2023-05-02T03:22:04;3.92;;;3.62;;
18754;SDS011;35061;47.664;9.166;2023-05-02T03:24:32;4.22;;;3.83;;
18754;SDS011;35061;47.664;9.166;2023-05-02T03:27:00;5.35;;;3.55;;
18754;SDS011;35061;47.664;9.166;2023-05-02T03:29:28;4.35;;;3.95;;
18754;SDS011;35061;47.664;9.166;2023-05-02T03:31:56;4.37;;;3.97;;
18754;SDS011;35061;47.664;9.166;2023-05-02T03:34:24;5.25;;;4.10;;
18754;SDS011;35061;47.664;9.166;2023-05-02T03:36:52;5.20;;;4.03;;
18754;SDS011;35061;47.664;9.166;2023-05-02T03:39:20;3.92;;;3.22;;
18754;SDS011;35061;47.664;9.166;2023-05-02T03:41:48;3.05;;;2.83;;
18754;SDS011;35061;47.664;9.166;2023-05-02T03:44:15;4.57;;;4.18;;
18754;SDS011;35061;47.664;9.166;2023-05-02T03:46:44;4.07;;;3.40;;
18754;SDS011;35061;47.664;9.166;2023-05-02T03:49:12;4.28;;;3.87;;
18754;SDS011;35061;47.664;9.166;2023-05-02T03:51:40;3.97;;;3.47;;
18754;SDS011;35061;47.664;9.166;2023-05-02T03:54:08;4.10;;;3.47;;
18754;SDS011;35061;47.664;9.166;2023-05-02T03:56:36;3.95;;;3.62;;
18754;SDS011;35061;47.664;9.166;2023-05-02T03:59:07;4.40;;;4.00;;
18754;SDS011;35061;47.664;9.166;2023-05-02T04:01:35;4.85;;;4.25;;
18754;SDS011;35061;47.664;9.166;2023-05-02T04:04:03;4.20;;;3.80;;
18754;SDS011;35061;47.664;9.166;2023-05-02T04:06:32;4.10;;;3.70;;
18754;SDS011;35061;47.664;9.166;2023-05-02T04:09:00;4.70;;;4.22;;
18754;SDS011;35061;47.664;9.166;2023-05-02T04:11:28;5.60;;;3.95;;
18754;SDS011;35061;47.664;9.166;2023-05-02T04:13:56;5.03;;;3.65;;
18754;SDS011;35061;47.664;9.166;2023-05-02T04:16:24;5.80;;;4.25;;
18754;SDS011;35061;47.664;9.166;2023-05-02T04:18:52;4.22;;;3.70;;
18754;SDS011;35061;47.664;9.166;2023-05-02T04:21:20;4.20;;;3.80;;
18754;SDS011;35061;47.664;9.166;2023-05-02T04:23:48;4.57;;;4.18;;
18754;SDS011;35061;47.664;9.166;2023-05-02T04:26:16;4.55;;;4.15;;
18754;SDS011;35061;47.664;9.166;2023-05-02T04:28:43;4.53;;;4.12;;
18754;SDS011;35061;47.664;9.166;2023-05-02T04:31:11;4.80;;;4.30;;
18754;SDS011;35061;47.664;9.166;2023-05-02T04:33:39;5.15;;;3.83;;
18754;SDS011;35061;47.664;9.166;2023-05-02T04:36:08;4.28;;;3.87;;
18754;SDS011;35061;47.664;9.166;2023-05-02T04:38:36;4.25;;;3.95;;
18754;SDS011;35061;47.664;9.166;2023-05-02T04:41:04;4.22;;;3.83;;
18754;SDS011;35061;47.664;9.166;2023-05-02T04:43:34;4.18;;;3.87;;
18754;SDS011;35061;47.664;9.166;2023-05-02T04:46:02;4.35;;;3.95;;
18754;SDS011;35061;47.664;9.166;2023-05-02T04:48:30;5.00;;;4.60;;
18754;SDS011;35061;47.664;9.166;2023-05-02T04:51:00;5.10;;;3.78;;
18754;SDS011;35061;47.664;9.166;2023-05-02T04:53:27;4.80;;;4.40;;
18754;SDS011;35061;47.664;9.166;2023-05-02T04:55:56;4.57;;;4.10;;
18754;SDS011;35061;47.664;9.166;2023-05-02T04:58:24;5.20;;;4.47;;
18754;SDS011;35061;47.664;9.166;2023-05-02T05:00:52;5.03;;;4.03;;
18754;SDS011;35061;47.664;9.166;2023-05-02T05:03:21;4.53;;;3.90;;
18754;SDS011;35061;47.664;9.166;2023-05-02T05:05:49;5.03;;;4.22;;
18754;SDS011;35061;47.664;9.166;2023-05-02T05:08:17;4.85;;;4.00;;
18754;SDS011;35061;47.664;9.166;2023-05-02T05:10:45;4.10;;;3.70;;
18754;SDS011;35061;47.664;9.166;2023-05-02T05:13:13;3.83;;;3.47;;
18754;SDS011;35061;47.664;9.166;2023-05-02T05:15:41;3.95;;;3.55;;
18754;SDS011;35061;47.664;9.166;2023-05-02T05:18:10;4.28;;;3.87;;
18754;SDS011;35061;47.664;9.166;2023-05-02T05:20:38;4.35;;;3.95;;
18754;SDS011;35061;47.664;9.166;2023-05-02T05:23:06;3.80;;;3.50;;
18754;SDS011;35061;47.664;9.166;2023-05-02T05:25:34;4.00;;;3.60;;
18754;SDS011;35061;47.664;9.166;2023-05-02T05:28:02;3.95;;;3.47;;
18754;SDS011;35061;47.664;9.166;2023-05-02T05:30:30;3.42;;;3.12;;
18754;SDS011;35061;47.664;9.166;2023-05-02T05:32:58;4.90;;;4.40;;
18754;SDS011;35061;47.664;9.166;2023-05-02T05:35:26;4.70;;;4.30;;
18754;SDS011;35061;47.664;9.166;2023-05-02T05:37:54;5.15;;;4.22;;
18754;SDS011;35061;47.664;9.166;2023-05-02T05:40:22;5.00;;;4.28;;
18754;SDS011;35061;47.664;9.166;2023-05-02T05:42:50;5.30;;;4.80;;
18754;SDS011;35061;47.664;9.166;2023-05-02T05:45:18;5.03;;;4.07;;
18754;SDS011;35061;47.664;9.166;2023-05-02T05:47:46;4.37;;;3.97;;
18754;SDS011;35061;47.664;9.166;2023-05-02T05:50:14;4.65;;;4.25;;
18754;SDS011;35061;47.664;9.166;2023-05-02T05:52:42;4.90;;;4.07;;
18754;SDS011;35061;47.664;9.166;2023-05-02T05:55:10;4.72;;;4.32;;
18754;SDS011;35061;47.664;9.166;2023-05-02T05:57:38;5.15;;;4.65;;
18754;SDS011;35061;47.664;9.166;2023-05-02T06:00:06;4.95;;;4.55;;
18754;SDS011;35061;47.664;9.166;2023-05-02T06:02:35;5.80;;;5.20;;
18754;SDS011;35061;47.664;9.166;2023-05-02T06:05:03;7.28;;;4.80;;
18754;SDS011;35061;47.664;9.166;2023-05-02T06:07:32;6.60;;;4.82;;
18754;SDS011;35061;47.664;9.166;2023-05-02T06:10:00;4.80;;;4.37;;
18754;SDS011;35061;47.664;9.166;2023-05-02T06:12:28;5.10;;;4.53;;
18754;SDS011;35061;47.664;9.166;2023-05-02T06:14:57;5.40;;;4.90;;
18754;SDS011;35061;47.664;9.166;2023-05-02T06:17:25;5.25;;;4.25;;
18754;SDS011;35061;47.664;9.166;2023-05-02T06:19:53;5.28;;;4.78;;
18754;SDS011;35061;47.664;9.166;2023-05-02T06:22:21;4.90;;;4.45;;
18754;SDS011;35061;47.664;9.166;2023-05-02T06:24:49;6.15;;;5.07;;
18754;SDS011;35061;47.664;9.166;2023-05-02T06:27:17;5.45;;;4.90;;
18754;SDS011;35061;47.664;9.166;2023-05-02T06:29:45;6.40;;;4.90;;
18754;SDS011;35061;47.664;9.166;2023-05-02T06:32:13;5.95;;;5.35;;
18754;SDS011;35061;47.664;9.166;2023-05-02T06:34:41;5.68;;;5.18;;
18754;SDS011;35061;47.664;9.166;2023-05-02T06:37:09;5.78;;;5.20;;
18754;SDS011;35061;47.664;9.166;2023-05-02T06:39:37;6.95;;;5.25;;
18754;SDS011;35061;47.664;9.166;2023-05-02T06:42:05;7.62;;;5.70;;
18754;SDS011;35061;47.664;9.166;2023-05-02T06:44:33;6.45;;;5.70;;
18754;SDS011;35061;47.664;9.166;2023-05-02T06:47:02;6.57;;;5.25;;
18754;SDS011;35061;47.664;9.166;2023-05-02T06:49:31;6.30;;;5.53;;
18754;SDS011;35061;47.664;9.166;2023-05-02T06:51:59;5.18;;;4.68;;
18754;SDS011;35061;47.664;9.166;2023-05-02T06:54:27;7.78;;;5.82;;
18754;SDS011;35061;47.664;9.166;2023-05-02T06:56:55;6.25;;;5.65;;
18754;SDS011;35061;47.664;9.166;2023-05-02T06:59:23;6.20;;;5.60;;
18754;SDS011;35061;47.664;9.166;2023-05-02T07:01:51;5.47;;;4.97;;
18754;SDS011;35061;47.664;9.166;2023-05-02T07:04:19;5.97;;;4.95;;
18754;SDS011;35061;47.664;9.166;2023-05-02T07:06:47;5.28;;;4.87;;
18754;SDS011;35061;47.664;9.166;2023-05-02T07:09:15;5.18;;;4.72;;
18754;SDS011;35061;47.664;9.166;2023-05-02T07:11:43;5.22;;;4.72;;
18754;SDS011;35061;47.664;9.166;2023-05-02T07:14:11;4.60;;;4.20;;
18754;SDS011;35061;47.664;9.166;2023-05-02T07:16:40;5.03;;;4.50;;
18754;SDS011;35061;47.664;9.166;2023-05-02T07:19:08;6.95;;;4.75;;
18754;SDS011;35061;47.664;9.166;2023-05-02T07:21:36;6.18;;;4.62;;
18754;SDS011;35061;47.664;9.166;2023-05-02T07:24:04;5.65;;;4.68;;
18754;SDS011;35061;47.664;9.166;2023-05-02T07:26:32;5.50;;;5.00;;
18754;SDS011;35061;47.664;9.166;2023-05-02T07:29:00;5.90;;;4.50;;
18754;SDS011;35061;47.664;9.166;2023-05-02T07:31:28;5.35;;;4.85;;
18754;SDS011;35061;47.664;9.166;2023-05-02T07:33:55;5.40;;;4.90;;
18754;SDS011;35061;47.664;9.166;2023-05-02T07:36:23;4.65;;;4.22;;
18754;SDS011;35061;47.664;9.166;2023-05-02T07:38:51;5.57;;;5.07;;
18754;SDS011;35061;47.664;9.166;2023-05-02T07:41:19;5.28;;;4.78;;
18754;SDS011;35061;47.664;9.166;2023-05-02T07:43:47;5.18;;;4.68;;
18754;SDS011;35061;47.664;9.166;2023-05-02T07:46:15;5.25;;;4.75;;
18754;SDS011;35061;47.664;9.166;2023-05-02T07:48:44;7.28;;;5.50;;
18754;SDS011;35061;47.664;9.166;2023-05-02T07:51:12;4.95;;;4.45;;
18754;SDS011;35061;47.664;9.166;2023-05-02T07:53:39;5.05;;;4.55;;
18754;SDS011;35061;47.664;9.166;2023-05-02T07:56:08;5.60;;;5.10;;
18754;SDS011;35061;47.664;9.166;2023-05-02T07:58:35;5.60;;;4.90;;
18754;SDS011;35061;47.664;9.166;2023-05-02T08:01:03;5.70;;;5.20;;
18754;SDS011;35061;47.664;9.166;2023-05-02T08:03:32;6.85;;;5.70;;
18754;SDS011;35061;47.664;9.166;2023-05-02T08:06:00;5.22;;;4.72;;
18754;SDS011;35061;47.664;9.166;2023-05-02T08:08:28;5.53;;;4.80;;
18754;SDS011;35061;47.664;9.166;2023-05-02T08:10:56;5.72;;;5.12;;
18754;SDS011;35061;47.664;9.166;2023-05-02T08:13:24;5.72;;;5.12;;
18754;SDS011;35061;47.664;9.166;2023-05-02T08:15:53;5.68;;;5.05;;
18754;SDS011;35061;47.664;9.166;2023-05-02T08:18:24;6.00;;;5.40;;
18754;SDS011;35061;47.664;9.166;2023-05-02T08:20:54;5.62;;;5.07;;
18754;SDS011;35061;47.664;9.166;2023-05-02T08:23:24;5.05;;;4.55;;
18754;SDS011;35061;47.664;9.166;2023-05-02T08:25:53;5.70;;;5.10;;
18754;SDS011;35061;47.664;9.166;2023-05-02T08:28:21;6.05;;;5.45;;
18754;SDS011;35061;47.664;9.166;2023-05-02T08:30:49;6.45;;;5.22;;
18754;SDS011;35061;47.664;9.166;2023-05-02T08:33:17;5.30;;;4.80;;
18754;SDS011;35061;47.664;9.166;2023-05-02T08:35:45;5.82;;;5.20;;
18754;SDS011;35061;47.664;9.166;2023-05-02T08:38:13;5.47;;;5.05;;
18754;SDS011;35061;47.664;9.166;2023-05-02T08:40:41;5.65;;;5.00;;
18754;SDS011;35061;47.664;9.166;2023-05-02T08:43:12;5.53;;;5.03;;
18754;SDS011;35061;47.664;9.166;2023-05-02T08:45:43;5.47;;;4.97;;
18754;SDS011;35061;47.664;9.166;2023-05-02T08:48:12;6.12;;;5.45;;
18754;SDS011;35061;47.664;9.166;2023-05-02T08:50:42;5.80;;;5.20;;
18754;SDS011;35061;47.664;9.166;2023-05-02T08:53:13;6.78;;;5.07;;
18754;SDS011;35061;47.664;9.166;2023-05-02T08:55:41;5.72;;;5.22;;
18754;SDS011;35061;47.664;9.166;2023-05-02T08:58:09;6.20;;;5.60;;
18754;SDS011;35061;47.664;9.166;2023-05-02T09:00:41;7.10;;;5.68;;
18754;SDS011;35061;47.664;9.166;2023-05-02T09:05:41;7.68;;;6.20;;
18754;SDS011;35061;47.664;9.166;2023-05-02T09:08:09;7.70;;;6.20;;
18754;SDS011;35061;47.664;9.166;2023-05-02T09:10:37;6.68;;;5.90;;
18754;SDS011;35061;47.664;9.166;2023-05-02T09:16:18;6.05;;;5.55;;
18754;SDS011;35061;47.664;9.166;2023-05-02T09:18:56;7.22;;;6.40;;
18754;SDS011;35061;47.664;9.166;2023-05-02T09:21:26;6.43;;;5.82;;
18754;SDS011;35061;47.664;9.166;2023-05-02T09:24:14;6.95;;;5.70;;
18754;SDS011;35061;47.664;9.166;2023-05-02T09:26:57;7.93;;;6.28;;
18754;SDS011;35061;47.664;9.166;2023-05-02T09:29:27;7.28;;;6.43;;
18754;SDS011;35061;47.664;9.166;2023-05-02T09:32:02;6.43;;;5.53;;
18754;SDS011;35061;47.664;9.166;2023-05-02T09:34:32;6.82;;;6.00;;
18754;SDS011;35061;47.664;9.166;2023-05-02T09:37:01;6.97;;;6.28;;
18754;SDS011;35061;47.664;9.166;2023-05-02T09:39:31;6.45;;;5.82;;
18754;SDS011;35061;47.664;9.166;2023-05-02T09:41:59;7.50;;;6.62;;
18754;SDS011;35061;47.664;9.166;2023-05-02T09:44:36;6.32;;;5.72;;
18754;SDS011;35061;47.664;9.166;2023-05-02T09:47:04;7.20;;;6.43;;
18754;SDS011;35061;47.664;9.166;2023-05-02T09:52:12;6.53;;;5.82;;
18754;SDS011;35061;47.664;9.166;2023-05-02T09:54:41;6.95;;;5.68;;
18754;SDS011;35061;47.664;9.166;2023-05-02T09:57:10;6.97;;;6.22;;
18754;SDS011;35061;47.664;9.166;2023-05-02T09:59:38;6.75;;;5.95;;
18754;SDS011;35061;47.664;9.166;2023-05-02T10:02:07;6.97;;;5.97;;
18754;SDS011;35061;47.664;9.166;2023-05-02T10:04:37;6.78;;;6.12;;
18754;SDS011;35061;47.664;9.166;2023-05-02T10:07:06;6.00;;;5.40;;
18754;SDS011;35061;47.664;9.166;2023-05-02T10:09:38;6.68;;;6.00;;
18754;SDS011;35061;47.664;9.166;2023-05-02T10:12:12;8.07;;;5.60;;
18754;SDS011;35061;47.664;9.166;2023-05-02T10:14:42;6.60;;;6.00;;
18754;SDS011;35061;47.664;9.166;2023-05-02T10:17:26;6.00;;;5.50;;
18754;SDS011;35061;47.664;9.166;2023-05-02T10:20:04;11.65;;;6.47;;
18754;SDS011;35061;47.664;9.166;2023-05-02T10:22:33;7.12;;;5.45;;
18754;SDS011;35061;47.664;9.166;2023-05-02T10:25:02;7.82;;;6.68;;
18754;SDS011;35061;47.664;9.166;2023-05-02T10:27:31;6.50;;;5.87;;
18754;SDS011;35061;47.664;9.166;2023-05-02T10:30:00;7.07;;;6.37;;
18754;SDS011;35061;47.664;9.166;2023-05-02T10:32:33;6.85;;;6.25;;
18754;SDS011;35061;47.664;9.166;2023-05-02T10:35:05;6.68;;;6.07;;
18754;SDS011;35061;47.664;9.166;2023-05-02T10:37:35;6.60;;;5.90;;
18754;SDS011;35061;47.664;9.166;2023-05-02T10:40:05;6.82;;;6.10;;
18754;SDS011;35061;47.664;9.166;2023-05-02T10:42:39;7.22;;;6.07;;
18754;SDS011;35061;47.664;9.166;2023-05-02T10:50:46;6.22;;;5.60;;
18754;SDS011;35061;47.664;9.166;2023-05-02T10:53:28;5.93;;;5.20;;
18754;SDS011;35061;47.664;9.166;2023-05-02T10:56:07;6.20;;;5.60;;
18754;SDS011;35061;47.664;9.166;2023-05-02T10:58:35;7.87;;;5.05;;
18754;SDS011;35061;47.664;9.166;2023-05-02T11:03:59;6.12;;;5.53;;
18754;SDS011;35061;47.664;9.166;2023-05-02T11:06:32;5.87;;;5.03;;
18754;SDS011;35061;47.664;9.166;2023-05-02T11:11:51;5.47;;;4.93;;
18754;SDS011;35061;47.664;9.166;2023-05-02T11:19:26;5.32;;;4.85;;
18754;SDS011;35061;47.664;9.166;2023-05-02T11:24:50;4.95;;;4.55;;
18754;SDS011;35061;47.664;9.166;2023-05-02T11:30:00;4.90;;;4.53;;
18754;SDS011;35061;47.664;9.166;2023-05-02T11:35:25;4.90;;;4.50;;
18754;SDS011;35061;47.664;9.166;2023-05-02T11:38:00;5.50;;;4.93;;
18754;SDS011;35061;47.664;9.166;2023-05-02T11:40:33;5.12;;;4.70;;
18754;SDS011;35061;47.664;9.166;2023-05-02T11:43:07;5.22;;;4.72;;
18754;SDS011;35061;47.664;9.166;2023-05-02T11:45:42;7.20;;;5.28;;
18754;SDS011;35061;47.664;9.166;2023-05-02T11:48:11;5.68;;;5.18;;
18754;SDS011;35061;47.664;9.166;2023-05-02T11:50:41;5.25;;;4.68;;
18754;SDS011;35061;47.664;9.166;2023-05-02T11:53:19;5.10;;;4.60;;
18754;SDS011;35061;47.664;9.166;2023-05-02T11:55:52;4.95;;;4.45;;
18754;SDS011;35061;47.664;9.166;2023-05-02T11:58:22;7.12;;;4.68;;
18754;SDS011;35061;47.664;9.166;2023-05-02T12:01:12;5.75;;;5.25;;
18754;SDS011;35061;47.664;9.166;2023-05-02T12:03:41;4.90;;;4.50;;
18754;SDS011;35061;47.664;9.166;2023-05-02T12:06:13;5.32;;;4.82;;
18754;SDS011;35061;47.664;9.166;2023-05-02T12:08:43;5.47;;;4.50;;
18754;SDS011;35061;47.664;9.166;2023-05-02T12:11:12;4.70;;;4.30;;
18754;SDS011;35061;47.664;9.166;2023-05-02T12:13:45;4.75;;;4.35;;
18754;SDS011;35061;47.664;9.166;2023-05-02T12:16:15;4.62;;;4.22;;
18754;SDS011;35061;47.664;9.166;2023-05-02T12:18:45;5.15;;;3.72;;
18754;SDS011;35061;47.664;9.166;2023-05-02T12:21:14;4.82;;;4.40;;
18754;SDS011;35061;47.664;9.166;2023-05-02T12:23:43;5.60;;;5.10;;
18754;SDS011;35061;47.664;9.166;2023-05-02T12:26:15;5.95;;;4.65;;
18754;SDS011;35061;47.664;9.166;2023-05-02T12:28:52;4.70;;;4.30;;
18754;SDS011;35061;47.664;9.166;2023-05-02T12:31:25;5.30;;;4.78;;
18754;SDS011;35061;47.664;9.166;2023-05-02T12:33:55;4.65;;;4.20;;
18754;SDS011;35061;47.664;9.166;2023-05-02T12:36:26;5.28;;;4.78;;
18754;SDS011;35061;47.664;9.166;2023-05-02T12:39:00;5.30;;;4.80;;
18754;SDS011;35061;47.664;9.166;2023-05-02T12:41:37;7.60;;;4.32;;
18754;SDS011;35061;47.664;9.166;2023-05-02T12:44:06;4.50;;;4.10;;
18754;SDS011;35061;47.664;9.166;2023-05-02T12:46:34;5.53;;;4.50;;
18754;SDS011;35061;47.664;9.166;2023-05-02T12:49:03;5.37;;;4.78;;
18754;SDS011;35061;47.664;9.166;2023-05-02T12:51:32;5.93;;;5.40;;
18754;SDS011;35061;47.664;9.166;2023-05-02T12:54:01;5.87;;;5.37;;
18754;SDS011;35061;47.664;9.166;2023-05-02T12:56:30;6.55;;;5.47;;
18754;SDS011;35061;47.664;9.166;2023-05-02T12:59:05;6.10;;;5.50;;
18754;SDS011;35061;47.664;9.166;2023-05-02T13:01:34;5.97;;;5.47;;
18754;SDS011;35061;47.664;9.166;2023-05-02T13:04:03;5.70;;;5.20;;
18754;SDS011;35061;47.664;9.166;2023-05-02T13:06:32;6.90;;;5.05;;
18754;SDS011;35061;47.664;9.166;2023-05-02T13:09:00;7.65;;;4.93;;
18754;SDS011;35061;47.664;9.166;2023-05-02T13:11:29;5.30;;;4.85;;
18754;SDS011;35061;47.664;9.166;2023-05-02T13:13:57;9.55;;;4.97;;
18754;SDS011;35061;47.664;9.166;2023-05-02T13:16:26;6.35;;;5.65;;
18754;SDS011;35061;47.664;9.166;2023-05-02T13:18:56;6.05;;;5.55;;
18754;SDS011;35061;47.664;9.166;2023-05-02T13:21:24;6.10;;;5.28;;
18754;SDS011;35061;47.664;9.166;2023-05-02T13:23:52;5.32;;;4.60;;
18754;SDS011;35061;47.664;9.166;2023-05-02T13:26:21;5.03;;;4.62;;
18754;SDS011;35061;47.664;9.166;2023-05-02T13:28:49;7.65;;;6.00;;
18754;SDS011;35061;47.664;9.166;2023-05-02T13:31:17;5.72;;;4.80;;
18754;SDS011;35061;47.664;9.166;2023-05-02T13:33:45;5.35;;;4.75;;
18754;SDS011;35061;47.664;9.166;2023-05-02T13:36:13;5.45;;;4.90;;
18754;SDS011;35061;47.664;9.166;2023-05-02T13:38:41;6.03;;;5.43;;
18754;SDS011;35061;47.664;9.166;2023-05-02T13:41:09;5.32;;;4.82;;
18754;SDS011;35061;47.664;9.166;2023-05-02T13:43:37;5.72;;;5.22;;
18754;SDS011;35061;47.664;9.166;2023-05-02T13:46:07;5.60;;;5.10;;
18754;SDS011;35061;47.664;9.166;2023-05-02T13:48:35;5.12;;;4.70;;
18754;SDS011;35061;47.664;9.166;2023-05-02T13:51:03;5.47;;;4.95;;
18754;SDS011;35061;47.664;9.166;2023-05-02T13:53:31;5.87;;;4.32;;
18754;SDS011;35061;47.664;9.166;2023-05-02T13:56:05;4.85;;;4.35;;
18754;SDS011;35061;47.664;9.166;2023-05-02T13:58:34;4.90;;;4.25;;
18754;SDS011;35061;47.664;9.166;2023-05-02T14:01:02;4.22;;;3.87;;
18754;SDS011;35061;47.664;9.166;2023-05-02T14:03:30;4.97;;;4.55;;
18754;SDS011;35061;47.664;9.166;2023-05-02T14:05:59;5.18;;;4.57;;
18754;SDS011;35061;47.664;9.166;2023-05-02T14:08:27;5.07;;;4.68;;
18754;SDS011;35061;47.664;9.166;2023-05-02T14:10:55;5.85;;;4.37;;
18754;SDS011;35061;47.664;9.166;2023-05-02T14:13:23;4.75;;;4.35;;
18754;SDS011;35061;47.664;9.166;2023-05-02T14:15:51;4.53;;;3.97;;
18754;SDS011;35061;47.664;9.166;2023-05-02T14:18:20;4.45;;;4.05;;
18754;SDS011;35061;47.664;9.166;2023-05-02T14:20:48;4.78;;;4.37;;
18754;SDS011;35061;47.664;9.166;2023-05-02T14:23:16;4.32;;;3.92;;
18754;SDS011;35061;47.664;9.166;2023-05-02T14:25:44;4.12;;;3.78;;
18754;SDS011;35061;47.664;9.166;2023-05-02T14:28:12;4.70;;;3.60;;
18754;SDS011;35061;47.664;9.166;2023-05-02T14:30:40;3.90;;;3.60;;
18754;SDS011;35061;47.664;9.166;2023-05-02T14:33:08;4.00;;;3.70;;
18754;SDS011;35061;47.664;9.166;2023-05-02T14:35:36;3.90;;;3.60;;
18754;SDS011;35061;47.664;9.166;2023-05-02T14:38:04;4.15;;;3.75;;
18754;SDS011;35061;47.664;9.166;2023-05-02T14:40:33;4.68;;;4.28;;
18754;SDS011;35061;47.664;9.166;2023-05-02T14:43:01;3.83;;;3.53;;
18754;SDS011;35061;47.664;9.166;2023-05-02T14:45:29;3.92;;;3.62;;
18754;SDS011;35061;47.664;9.166;2023-05-02T14:47:57;4.35;;;3.37;;
18754;SDS011;35061;47.664;9.166;2023-05-02T14:50:25;4.97;;;4.47;;
18754;SDS011;35061;47.664;9.166;2023-05-02T14:52:53;6.05;;;5.18;;
18754;SDS011;35061;47.664;9.166;2023-05-02T14:55:21;4.85;;;4.45;;
18754;SDS011;35061;47.664;9.166;2023-05-02T14:57:49;5.00;;;4.60;;
18754;SDS011;35061;47.664;9.166;2023-05-02T15:00:17;5.90;;;4.43;;
18754;SDS011;35061;47.664;9.166;2023-05-02T15:02:45;3.75;;;3.45;;
18754;SDS011;35061;47.664;9.166;2023-05-02T15:05:13;3.33;;;3.03;;
18754;SDS011;35061;47.664;9.166;2023-05-02T15:07:41;3.40;;;3.10;;
18754;SDS011;35061;47.664;9.166;2023-05-02T15:10:09;3.03;;;2.17;;
18754;SDS011;35061;47.664;9.166;2023-05-02T15:12:37;2.55;;;2.35;;
18754;SDS011;35061;47.664;9.166;2023-05-02T15:15:05;2.85;;;2.65;;
18754;SDS011;35061;47.664;9.166;2023-05-02T15:17:35;2.47;;;2.28;;
18754;SDS011;35061;47.664;9.166;2023-05-02T15:20:03;2.85;;;2.60;;
18754;SDS011;35061;47.664;9.166;2023-05-02T15:22:31;3.20;;;2.92;;
18754;SDS011;35061;47.664;9.166;2023-05-02T15:25:00;3.40;;;3.05;;
18754;SDS011;35061;47.664;9.166;2023-05-02T15:27:30;3.28;;;2.97;;
18754;SDS011;35061;47.664;9.166;2023-05-02T15:29:58;3.47;;;3.17;;
18754;SDS011;35061;47.664;9.166;2023-05-02T15:32:27;4.25;;;3.30;;
18754;SDS011;35061;47.664;9.166;2023-05-02T15:34:55;3.62;;;3.33;;
18754;SDS011;35061;47.664;9.166;2023-05-02T15:37:23;3.62;;;3.33;;
18754;SDS011;35061;47.664;9.166;2023-05-02T15:39:52;4.57;;;3.72;;
18754;SDS011;35061;47.664;9.166;2023-05-02T15:42:19;3.60;;;3.30;;
18754;SDS011;35061;47.664;9.166;2023-05-02T15:44:47;4.60;;;3.50;;
18754;SDS011;35061;47.664;9.166;2023-05-02T15:47:15;3.67;;;3.37;;
18754;SDS011;35061;47.664;9.166;2023-05-02T15:49:46;2.10;;;2.00;;
18754;SDS011;35061;47.664;9.166;2023-05-02T15:52:14;2.30;;;2.10;;
18754;SDS011;35061;47.664;9.166;2023-05-02T15:54:42;2.00;;;1.90;;
18754;SDS011;35061;47.664;9.166;2023-05-02T15:57:10;2.10;;;2.00;;
18754;SDS011;35061;47.664;9.166;2023-05-02T15:59:39;1.60;;;1.50;;
18754;SDS011;35061;47.664;9.166;2023-05-02T16:02:07;1.58;;;1.48;;